sensor_id;sensor_type;location;lat;lon;timestamp;P1;durP1;ratioP1;P2;durP2;ratioP2
9374;SDS011;4727;51.202;6.344;2023-06-14T00:01:03;4.93;;;3.73;;
9374;SDS011;4727;51.202;6.344;2023-06-14T00:03:31;4.83;;;4.43;;
9374;SDS011;4727;51.202;6.344;2023-06-14T00:05:56;4.97;;;3.97;;
9374;SDS011;4727;51.202;6.344;2023-06-14T00:08:22;4.53;;;4.23;;
9374;SDS011;4727;51.202;6.344;2023-06-14T00:10:49;6.77;;;3.80;;
9374;SDS011;4727;51.202;6.344;2023-06-14T00:13:15;4.63;;;4.23;;
9374;SDS011;4727;51.202;6.344;2023-06-14T00:15:41;4.27;;;3.97;;
9374;SDS011;4727;51.202;6.344;2023-06-14T00:18:07;4.37;;;4.03;;
9374;SDS011;4727;51.202;6.344;2023-06-14T00:20:34;3.97;;;3.57;;
9374;SDS011;4727;51.202;6.344;2023-06-14T00:23:00;4.10;;;3.80;;
9374;SDS011;4727;51.202;6.344;2023-06-14T00:25:26;4.77;;;4.43;;
9374;SDS011;4727;51.202;6.344;2023-06-14T00:27:53;3.97;;;3.73;;
9374;SDS011;4727;51.202;6.344;2023-06-14T00:30:19;3.60;;;3.30;;
9374;SDS011;4727;51.202;6.344;2023-06-14T00:32:45;4.23;;;3.77;;
9374;SDS011;4727;51.202;6.344;2023-06-14T00:35:12;5.27;;;4.13;;
9374;SDS011;4727;51.202;6.344;2023-06-14T00:37:39;4.27;;;3.93;;
9374;SDS011;4727;51.202;6.344;2023-06-14T00:40:05;5.50;;;4.47;;
9374;SDS011;4727;51.202;6.344;2023-06-14T00:42:31;4.30;;;3.90;;
9374;SDS011;4727;51.202;6.344;2023-06-14T00:44:57;7.30;;;4.07;;
9374;SDS011;4727;51.202;6.344;2023-06-14T00:47:23;4.97;;;4.33;;
9374;SDS011;4727;51.202;6.344;2023-06-14T00:49:52;4.00;;;3.70;;
9374;SDS011;4727;51.202;6.344;2023-06-14T00:52:18;5.30;;;4.23;;
9374;SDS011;4727;51.202;6.344;2023-06-14T00:54:44;8.07;;;4.80;;
9374;SDS011;4727;51.202;6.344;2023-06-14T00:57:10;7.43;;;4.80;;
9374;SDS011;4727;51.202;6.344;2023-06-14T00:59:47;4.57;;;4.23;;
9374;SDS011;4727;51.202;6.344;2023-06-14T01:02:13;5.37;;;4.37;;
9374;SDS011;4727;51.202;6.344;2023-06-14T01:04:40;5.17;;;4.67;;
9374;SDS011;4727;51.202;6.344;2023-06-14T01:09:48;5.07;;;4.27;;
9374;SDS011;4727;51.202;6.344;2023-06-14T01:12:41;5.50;;;4.63;;
9374;SDS011;4727;51.202;6.344;2023-06-14T01:15:16;4.40;;;4.00;;
9374;SDS011;4727;51.202;6.344;2023-06-14T01:17:42;4.93;;;4.43;;
9374;SDS011;4727;51.202;6.344;2023-06-14T01:20:11;4.93;;;3.80;;
9374;SDS011;4727;51.202;6.344;2023-06-14T01:22:52;4.60;;;4.20;;
9374;SDS011;4727;51.202;6.344;2023-06-14T01:25:18;4.97;;;4.50;;
9374;SDS011;4727;51.202;6.344;2023-06-14T01:27:46;4.43;;;4.03;;
9374;SDS011;4727;51.202;6.344;2023-06-14T01:30:14;5.67;;;5.10;;
9374;SDS011;4727;51.202;6.344;2023-06-14T01:32:40;4.80;;;4.40;;
9374;SDS011;4727;51.202;6.344;2023-06-14T01:35:06;4.87;;;4.27;;
9374;SDS011;4727;51.202;6.344;2023-06-14T01:37:32;4.73;;;4.37;;
9374;SDS011;4727;51.202;6.344;2023-06-14T01:39:58;4.43;;;4.13;;
9374;SDS011;4727;51.202;6.344;2023-06-14T01:42:24;7.53;;;4.57;;
9374;SDS011;4727;51.202;6.344;2023-06-14T01:44:50;9.57;;;4.47;;
9374;SDS011;4727;51.202;6.344;2023-06-14T01:47:18;4.80;;;4.30;;
9374;SDS011;4727;51.202;6.344;2023-06-14T01:49:45;5.80;;;4.37;;
9374;SDS011;4727;51.202;6.344;2023-06-14T01:52:11;6.33;;;4.87;;
9374;SDS011;4727;51.202;6.344;2023-06-14T01:54:38;4.80;;;4.40;;
9374;SDS011;4727;51.202;6.344;2023-06-14T01:57:07;5.00;;;4.47;;
9374;SDS011;4727;51.202;6.344;2023-06-14T01:59:33;4.90;;;4.40;;
9374;SDS011;4727;51.202;6.344;2023-06-14T02:02:02;4.50;;;4.10;;
9374;SDS011;4727;51.202;6.344;2023-06-14T02:04:28;6.00;;;4.83;;
9374;SDS011;4727;51.202;6.344;2023-06-14T02:06:54;5.37;;;4.63;;
9374;SDS011;4727;51.202;6.344;2023-06-14T02:09:19;4.87;;;4.10;;
9374;SDS011;4727;51.202;6.344;2023-06-14T02:11:45;5.23;;;4.80;;
9374;SDS011;4727;51.202;6.344;2023-06-14T02:14:10;7.53;;;4.47;;
9374;SDS011;4727;51.202;6.344;2023-06-14T02:16:36;5.13;;;4.50;;
9374;SDS011;4727;51.202;6.344;2023-06-14T02:19:03;6.90;;;5.07;;
9374;SDS011;4727;51.202;6.344;2023-06-14T02:21:32;5.00;;;4.50;;
9374;SDS011;4727;51.202;6.344;2023-06-14T02:23:57;6.43;;;4.90;;
9374;SDS011;4727;51.202;6.344;2023-06-14T02:26:23;6.90;;;5.23;;
9374;SDS011;4727;51.202;6.344;2023-06-14T02:28:49;6.47;;;4.83;;
9374;SDS011;4727;51.202;6.344;2023-06-14T02:31:14;5.20;;;4.63;;
9374;SDS011;4727;51.202;6.344;2023-06-14T02:33:41;5.30;;;4.50;;
9374;SDS011;4727;51.202;6.344;2023-06-14T02:36:07;4.80;;;4.40;;
9374;SDS011;4727;51.202;6.344;2023-06-14T02:38:32;5.20;;;4.70;;
9374;SDS011;4727;51.202;6.344;2023-06-14T02:40:58;7.37;;;5.07;;
9374;SDS011;4727;51.202;6.344;2023-06-14T02:43:26;7.57;;;4.60;;
9374;SDS011;4727;51.202;6.344;2023-06-14T02:45:53;5.53;;;4.33;;
9374;SDS011;4727;51.202;6.344;2023-06-14T02:48:19;6.20;;;4.90;;
9374;SDS011;4727;51.202;6.344;2023-06-14T02:50:45;4.90;;;4.40;;
9374;SDS011;4727;51.202;6.344;2023-06-14T02:53:10;5.27;;;4.80;;
9374;SDS011;4727;51.202;6.344;2023-06-14T02:55:37;7.43;;;4.80;;
9374;SDS011;4727;51.202;6.344;2023-06-14T02:58:04;6.27;;;4.77;;
9374;SDS011;4727;51.202;6.344;2023-06-14T03:00:30;5.10;;;4.60;;
9374;SDS011;4727;51.202;6.344;2023-06-14T03:02:56;5.23;;;4.73;;
9374;SDS011;4727;51.202;6.344;2023-06-14T03:05:21;10.23;;;5.87;;
9374;SDS011;4727;51.202;6.344;2023-06-14T03:07:47;5.40;;;4.90;;
9374;SDS011;4727;51.202;6.344;2023-06-14T03:10:18;5.77;;;5.17;;
9374;SDS011;4727;51.202;6.344;2023-06-14T03:12:44;5.10;;;4.60;;
9374;SDS011;4727;51.202;6.344;2023-06-14T03:15:10;4.93;;;4.47;;
9374;SDS011;4727;51.202;6.344;2023-06-14T03:17:38;7.70;;;5.00;;
9374;SDS011;4727;51.202;6.344;2023-06-14T03:20:04;7.47;;;5.20;;
9374;SDS011;4727;51.202;6.344;2023-06-14T03:22:30;7.83;;;5.17;;
9374;SDS011;4727;51.202;6.344;2023-06-14T03:24:59;7.50;;;4.50;;
9374;SDS011;4727;51.202;6.344;2023-06-14T03:27:25;7.23;;;5.03;;
9374;SDS011;4727;51.202;6.344;2023-06-14T03:29:53;4.90;;;4.50;;
9374;SDS011;4727;51.202;6.344;2023-06-14T03:32:19;6.37;;;4.23;;
9374;SDS011;4727;51.202;6.344;2023-06-14T03:34:44;4.80;;;4.40;;
9374;SDS011;4727;51.202;6.344;2023-06-14T03:37:10;9.50;;;5.07;;
9374;SDS011;4727;51.202;6.344;2023-06-14T03:39:36;5.57;;;4.53;;
9374;SDS011;4727;51.202;6.344;2023-06-14T03:42:01;4.80;;;4.40;;
9374;SDS011;4727;51.202;6.344;2023-06-14T03:44:27;9.33;;;5.03;;
9374;SDS011;4727;51.202;6.344;2023-06-14T03:46:53;8.77;;;4.87;;
9374;SDS011;4727;51.202;6.344;2023-06-14T03:49:18;5.07;;;4.57;;
9374;SDS011;4727;51.202;6.344;2023-06-14T03:51:44;4.90;;;4.50;;
9374;SDS011;4727;51.202;6.344;2023-06-14T03:54:10;5.57;;;5.07;;
9374;SDS011;4727;51.202;6.344;2023-06-14T03:56:36;4.57;;;4.17;;
9374;SDS011;4727;51.202;6.344;2023-06-14T03:59:01;5.87;;;4.53;;
9374;SDS011;4727;51.202;6.344;2023-06-14T04:01:27;5.20;;;4.57;;
9374;SDS011;4727;51.202;6.344;2023-06-14T04:03:55;4.30;;;4.00;;
9374;SDS011;4727;51.202;6.344;2023-06-14T04:06:21;4.53;;;4.17;;
9374;SDS011;4727;51.202;6.344;2023-06-14T04:08:50;5.10;;;4.60;;
9374;SDS011;4727;51.202;6.344;2023-06-14T04:11:16;6.43;;;4.40;;
9374;SDS011;4727;51.202;6.344;2023-06-14T04:13:42;11.07;;;4.70;;
9374;SDS011;4727;51.202;6.344;2023-06-14T04:16:08;5.60;;;4.23;;
9374;SDS011;4727;51.202;6.344;2023-06-14T04:18:33;4.60;;;4.20;;
9374;SDS011;4727;51.202;6.344;2023-06-14T04:20:59;4.70;;;4.30;;
9374;SDS011;4727;51.202;6.344;2023-06-14T04:23:25;4.27;;;3.70;;
9374;SDS011;4727;51.202;6.344;2023-06-14T04:25:53;4.70;;;4.23;;
9374;SDS011;4727;51.202;6.344;2023-06-14T04:28:18;4.37;;;3.97;;
9374;SDS011;4727;51.202;6.344;2023-06-14T04:30:44;5.77;;;3.77;;
9374;SDS011;4727;51.202;6.344;2023-06-14T04:33:10;5.27;;;4.70;;
9374;SDS011;4727;51.202;6.344;2023-06-14T04:35:36;4.23;;;3.93;;
9374;SDS011;4727;51.202;6.344;2023-06-14T04:38:02;4.20;;;3.80;;
9374;SDS011;4727;51.202;6.344;2023-06-14T04:40:30;5.80;;;3.87;;
9374;SDS011;4727;51.202;6.344;2023-06-14T04:42:56;4.20;;;3.87;;
9374;SDS011;4727;51.202;6.344;2023-06-14T04:45:22;4.77;;;3.83;;
9374;SDS011;4727;51.202;6.344;2023-06-14T04:47:48;9.73;;;4.13;;
9374;SDS011;4727;51.202;6.344;2023-06-14T04:50:15;4.20;;;3.83;;
9374;SDS011;4727;51.202;6.344;2023-06-14T04:52:41;4.17;;;3.77;;
9374;SDS011;4727;51.202;6.344;2023-06-14T04:55:07;3.90;;;3.60;;
9374;SDS011;4727;51.202;6.344;2023-06-14T04:57:33;6.37;;;3.83;;
9374;SDS011;4727;51.202;6.344;2023-06-14T05:00:00;4.47;;;4.00;;
9374;SDS011;4727;51.202;6.344;2023-06-14T05:02:25;5.70;;;4.40;;
9374;SDS011;4727;51.202;6.344;2023-06-14T05:04:52;4.40;;;3.73;;
9374;SDS011;4727;51.202;6.344;2023-06-14T05:07:19;4.27;;;3.83;;
9374;SDS011;4727;51.202;6.344;2023-06-14T05:09:45;4.53;;;3.80;;
9374;SDS011;4727;51.202;6.344;2023-06-14T05:12:10;4.47;;;3.67;;
9374;SDS011;4727;51.202;6.344;2023-06-14T05:14:36;4.60;;;4.20;;
9374;SDS011;4727;51.202;6.344;2023-06-14T05:17:02;3.97;;;3.67;;
9374;SDS011;4727;51.202;6.344;2023-06-14T05:19:28;4.03;;;3.70;;
9374;SDS011;4727;51.202;6.344;2023-06-14T05:21:54;4.30;;;3.90;;
9374;SDS011;4727;51.202;6.344;2023-06-14T05:24:19;4.33;;;3.63;;
9374;SDS011;4727;51.202;6.344;2023-06-14T05:26:45;4.40;;;4.00;;
9374;SDS011;4727;51.202;6.344;2023-06-14T05:29:11;4.23;;;3.83;;
9374;SDS011;4727;51.202;6.344;2023-06-14T05:31:37;4.30;;;3.73;;
9374;SDS011;4727;51.202;6.344;2023-06-14T05:34:03;4.77;;;3.80;;
9374;SDS011;4727;51.202;6.344;2023-06-14T05:36:29;4.17;;;3.40;;
9374;SDS011;4727;51.202;6.344;2023-06-14T05:38:55;3.97;;;3.30;;
9374;SDS011;4727;51.202;6.344;2023-06-14T05:41:25;3.57;;;3.27;;
9374;SDS011;4727;51.202;6.344;2023-06-14T05:43:51;3.67;;;3.37;;
9374;SDS011;4727;51.202;6.344;2023-06-14T05:46:17;4.10;;;3.70;;
9374;SDS011;4727;51.202;6.344;2023-06-14T05:48:47;4.03;;;3.60;;
9374;SDS011;4727;51.202;6.344;2023-06-14T05:51:13;5.17;;;3.50;;
9374;SDS011;4727;51.202;6.344;2023-06-14T05:53:39;4.83;;;3.13;;
9374;SDS011;4727;51.202;6.344;2023-06-14T05:56:05;5.80;;;4.03;;
9374;SDS011;4727;51.202;6.344;2023-06-14T05:58:31;3.30;;;3.10;;
9374;SDS011;4727;51.202;6.344;2023-06-14T06:00:56;3.70;;;3.37;;
9374;SDS011;4727;51.202;6.344;2023-06-14T06:03:22;3.43;;;3.20;;
9374;SDS011;4727;51.202;6.344;2023-06-14T06:05:48;3.73;;;3.50;;
9374;SDS011;4727;51.202;6.344;2023-06-14T06:08:13;4.90;;;3.57;;
9374;SDS011;4727;51.202;6.344;2023-06-14T06:10:41;5.40;;;3.27;;
9374;SDS011;4727;51.202;6.344;2023-06-14T06:13:07;5.80;;;3.67;;
9374;SDS011;4727;51.202;6.344;2023-06-14T06:15:32;6.27;;;3.20;;
9374;SDS011;4727;51.202;6.344;2023-06-14T06:17:58;3.67;;;3.10;;
9374;SDS011;4727;51.202;6.344;2023-06-14T06:20:24;3.47;;;3.27;;
9374;SDS011;4727;51.202;6.344;2023-06-14T06:22:57;3.63;;;3.37;;
9374;SDS011;4727;51.202;6.344;2023-06-14T06:25:23;3.53;;;3.33;;
9374;SDS011;4727;51.202;6.344;2023-06-14T06:27:50;4.53;;;3.50;;
9374;SDS011;4727;51.202;6.344;2023-06-14T06:30:17;3.23;;;3.00;;
9374;SDS011;4727;51.202;6.344;2023-06-14T06:32:43;5.83;;;3.60;;
9374;SDS011;4727;51.202;6.344;2023-06-14T06:35:08;3.50;;;3.20;;
9374;SDS011;4727;51.202;6.344;2023-06-14T06:37:36;3.20;;;3.00;;
9374;SDS011;4727;51.202;6.344;2023-06-14T06:40:01;3.93;;;3.60;;
9374;SDS011;4727;51.202;6.344;2023-06-14T06:42:29;5.53;;;3.27;;
9374;SDS011;4727;51.202;6.344;2023-06-14T06:44:54;5.60;;;3.87;;
9374;SDS011;4727;51.202;6.344;2023-06-14T06:47:20;5.80;;;4.10;;
9374;SDS011;4727;51.202;6.344;2023-06-14T06:49:45;3.63;;;3.33;;
9374;SDS011;4727;51.202;6.344;2023-06-14T06:52:11;5.40;;;3.20;;
9374;SDS011;4727;51.202;6.344;2023-06-14T06:54:36;4.00;;;2.83;;
9374;SDS011;4727;51.202;6.344;2023-06-14T06:57:02;5.17;;;3.33;;
9374;SDS011;4727;51.202;6.344;2023-06-14T06:59:28;3.47;;;3.17;;
9374;SDS011;4727;51.202;6.344;2023-06-14T07:01:53;2.83;;;2.50;;
9374;SDS011;4727;51.202;6.344;2023-06-14T07:04:19;3.20;;;2.90;;
9374;SDS011;4727;51.202;6.344;2023-06-14T07:06:45;4.87;;;3.07;;
9374;SDS011;4727;51.202;6.344;2023-06-14T07:09:12;3.40;;;3.10;;
9374;SDS011;4727;51.202;6.344;2023-06-14T07:11:39;4.05;;;2.95;;
9374;SDS011;4727;51.202;6.344;2023-06-14T07:14:05;5.50;;;3.35;;
9374;SDS011;4727;51.202;6.344;2023-06-14T07:16:31;3.47;;;3.22;;
9374;SDS011;4727;51.202;6.344;2023-06-14T07:18:56;3.50;;;3.20;;
9374;SDS011;4727;51.202;6.344;2023-06-14T07:21:22;3.27;;;2.97;;
9374;SDS011;4727;51.202;6.344;2023-06-14T07:23:48;3.03;;;2.83;;
9374;SDS011;4727;51.202;6.344;2023-06-14T07:26:13;5.43;;;3.00;;
9374;SDS011;4727;51.202;6.344;2023-06-14T07:28:39;3.60;;;3.25;;
9374;SDS011;4727;51.202;6.344;2023-06-14T07:31:05;4.93;;;2.90;;
9374;SDS011;4727;51.202;6.344;2023-06-14T07:33:30;5.13;;;2.95;;
9374;SDS011;4727;51.202;6.344;2023-06-14T07:35:56;2.92;;;2.72;;
9374;SDS011;4727;51.202;6.344;2023-06-14T07:38:22;3.50;;;3.30;;
9374;SDS011;4727;51.202;6.344;2023-06-14T07:40:47;5.35;;;3.45;;
9374;SDS011;4727;51.202;6.344;2023-06-14T07:43:13;2.80;;;2.47;;
9374;SDS011;4727;51.202;6.344;2023-06-14T07:45:39;4.65;;;3.58;;
9374;SDS011;4727;51.202;6.344;2023-06-14T07:48:04;2.78;;;2.60;;
9374;SDS011;4727;51.202;6.344;2023-06-14T07:50:30;3.08;;;2.88;;
9374;SDS011;4727;51.202;6.344;2023-06-14T07:52:56;2.63;;;2.42;;
9374;SDS011;4727;51.202;6.344;2023-06-14T07:55:21;3.10;;;2.80;;
9374;SDS011;4727;51.202;6.344;2023-06-14T07:57:47;2.80;;;2.60;;
9374;SDS011;4727;51.202;6.344;2023-06-14T08:00:13;2.53;;;2.42;;
9374;SDS011;4727;51.202;6.344;2023-06-14T08:02:41;3.10;;;1.75;;
9374;SDS011;4727;51.202;6.344;2023-06-14T08:05:09;1.67;;;1.58;;
9374;SDS011;4727;51.202;6.344;2023-06-14T08:07:36;1.92;;;1.60;;
9374;SDS011;4727;51.202;6.344;2023-06-14T08:10:02;2.67;;;1.70;;
9374;SDS011;4727;51.202;6.344;2023-06-14T08:12:28;1.50;;;1.40;;
9374;SDS011;4727;51.202;6.344;2023-06-14T08:14:53;1.00;;;1.00;;
9374;SDS011;4727;51.202;6.344;2023-06-14T08:17:19;2.45;;;1.23;;
9374;SDS011;4727;51.202;6.344;2023-06-14T08:19:45;1.52;;;1.52;;
9374;SDS011;4727;51.202;6.344;2023-06-14T08:22:10;1.52;;;1.33;;
9374;SDS011;4727;51.202;6.344;2023-06-14T08:24:37;1.40;;;1.30;;
9374;SDS011;4727;51.202;6.344;2023-06-14T08:27:02;1.55;;;1.45;;
9374;SDS011;4727;51.202;6.344;2023-06-14T08:29:28;2.17;;;1.83;;
9374;SDS011;4727;51.202;6.344;2023-06-14T08:31:57;1.98;;;1.88;;
9374;SDS011;4727;51.202;6.344;2023-06-14T08:34:23;2.00;;;1.90;;
9374;SDS011;4727;51.202;6.344;2023-06-14T08:36:49;1.40;;;1.30;;
9374;SDS011;4727;51.202;6.344;2023-06-14T08:39:15;4.03;;;1.45;;
9374;SDS011;4727;51.202;6.344;2023-06-14T08:41:41;1.48;;;1.40;;
9374;SDS011;4727;51.202;6.344;2023-06-14T08:44:10;1.23;;;1.23;;
9374;SDS011;4727;51.202;6.344;2023-06-14T08:46:36;3.40;;;1.20;;
9374;SDS011;4727;51.202;6.344;2023-06-14T08:49:02;1.52;;;1.42;;
9374;SDS011;4727;51.202;6.344;2023-06-14T08:51:31;1.63;;;1.17;;
9374;SDS011;4727;51.202;6.344;2023-06-14T08:54:01;1.48;;;1.33;;
9374;SDS011;4727;51.202;6.344;2023-06-14T08:56:29;1.08;;;0.93;;
9374;SDS011;4727;51.202;6.344;2023-06-14T08:58:56;1.02;;;1.02;;
9374;SDS011;4727;51.202;6.344;2023-06-14T09:01:25;1.17;;;1.17;;
9374;SDS011;4727;51.202;6.344;2023-06-14T09:03:51;1.13;;;1.13;;
9374;SDS011;4727;51.202;6.344;2023-06-14T09:06:19;1.67;;;1.58;;
9374;SDS011;4727;51.202;6.344;2023-06-14T09:08:48;1.05;;;1.05;;
9374;SDS011;4727;51.202;6.344;2023-06-14T09:11:14;1.40;;;1.30;;
9374;SDS011;4727;51.202;6.344;2023-06-14T09:13:41;1.55;;;1.45;;
9374;SDS011;4727;51.202;6.344;2023-06-14T09:16:08;1.30;;;1.20;;
9374;SDS011;4727;51.202;6.344;2023-06-14T09:21:08;3.80;;;1.83;;
9374;SDS011;4727;51.202;6.344;2023-06-14T09:23:41;1.75;;;1.65;;
9374;SDS011;4727;51.202;6.344;2023-06-14T09:28:47;1.75;;;1.65;;
9374;SDS011;4727;51.202;6.344;2023-06-14T09:31:15;1.52;;;1.42;;
9374;SDS011;4727;51.202;6.344;2023-06-14T09:33:45;1.50;;;1.40;;
9374;SDS011;4727;51.202;6.344;2023-06-14T09:36:16;1.30;;;1.30;;
9374;SDS011;4727;51.202;6.344;2023-06-14T09:38:42;1.48;;;1.38;;
9374;SDS011;4727;51.202;6.344;2023-06-14T09:44:08;1.50;;;1.50;;
9374;SDS011;4727;51.202;6.344;2023-06-14T09:46:35;1.55;;;1.45;;
9374;SDS011;4727;51.202;6.344;2023-06-14T09:49:02;2.63;;;1.67;;
9374;SDS011;4727;51.202;6.344;2023-06-14T09:51:29;1.50;;;1.40;;
9374;SDS011;4727;51.202;6.344;2023-06-14T09:53:59;2.03;;;1.85;;
9374;SDS011;4727;51.202;6.344;2023-06-14T09:56:30;1.58;;;1.48;;
9374;SDS011;4727;51.202;6.344;2023-06-14T09:59:02;1.50;;;1.40;;
9374;SDS011;4727;51.202;6.344;2023-06-14T10:01:31;3.03;;;1.80;;
9374;SDS011;4727;51.202;6.344;2023-06-14T10:04:02;1.60;;;1.40;;
9374;SDS011;4727;51.202;6.344;2023-06-14T10:06:29;1.50;;;1.40;;
9374;SDS011;4727;51.202;6.344;2023-06-14T10:08:56;2.40;;;1.52;;
9374;SDS011;4727;51.202;6.344;2023-06-14T10:11:27;1.73;;;1.63;;
9374;SDS011;4727;51.202;6.344;2023-06-14T10:13:53;2.08;;;1.83;;
9374;SDS011;4727;51.202;6.344;2023-06-14T10:17:03;1.48;;;1.38;;
9374;SDS011;4727;51.202;6.344;2023-06-14T10:19:25;1.45;;;1.45;;
9374;SDS011;4727;51.202;6.344;2023-06-14T10:22:05;3.53;;;1.58;;
9374;SDS011;4727;51.202;6.344;2023-06-14T10:24:43;1.42;;;1.40;;
9374;SDS011;4727;51.202;6.344;2023-06-14T10:27:09;2.20;;;2.00;;
9374;SDS011;4727;51.202;6.344;2023-06-14T10:30:01;2.53;;;2.33;;
9374;SDS011;4727;51.202;6.344;2023-06-14T10:32:27;3.20;;;2.20;;
9374;SDS011;4727;51.202;6.344;2023-06-14T10:34:56;1.80;;;1.70;;
9374;SDS011;4727;51.202;6.344;2023-06-14T10:37:24;1.98;;;1.88;;
9374;SDS011;4727;51.202;6.344;2023-06-14T10:39:50;2.85;;;2.20;;
9374;SDS011;4727;51.202;6.344;2023-06-14T10:42:15;1.60;;;1.50;;
9374;SDS011;4727;51.202;6.344;2023-06-14T10:44:42;1.85;;;1.75;;
9374;SDS011;4727;51.202;6.344;2023-06-14T10:49:54;2.30;;;2.20;;
9374;SDS011;4727;51.202;6.344;2023-06-14T10:52:27;1.95;;;1.73;;
9374;SDS011;4727;51.202;6.344;2023-06-14T10:55:04;2.25;;;2.13;;
9374;SDS011;4727;51.202;6.344;2023-06-14T10:57:44;2.10;;;1.90;;
9374;SDS011;4727;51.202;6.344;2023-06-14T11:00:11;1.88;;;1.77;;
9374;SDS011;4727;51.202;6.344;2023-06-14T11:05:53;2.13;;;1.95;;
9374;SDS011;4727;51.202;6.344;2023-06-14T11:11:34;2.42;;;2.22;;
9374;SDS011;4727;51.202;6.344;2023-06-14T11:14:01;2.15;;;2.05;;
9374;SDS011;4727;51.202;6.344;2023-06-14T11:16:27;1.85;;;1.70;;
9374;SDS011;4727;51.202;6.344;2023-06-14T11:18:53;1.92;;;1.83;;
9374;SDS011;4727;51.202;6.344;2023-06-14T11:21:19;2.58;;;1.73;;
9374;SDS011;4727;51.202;6.344;2023-06-14T11:23:48;1.85;;;1.60;;
9374;SDS011;4727;51.202;6.344;2023-06-14T11:26:15;2.17;;;1.70;;
9374;SDS011;4727;51.202;6.344;2023-06-14T11:28:48;1.73;;;1.55;;
9374;SDS011;4727;51.202;6.344;2023-06-14T11:31:21;1.50;;;1.40;;
9374;SDS011;4727;51.202;6.344;2023-06-14T11:33:49;1.67;;;1.58;;
9374;SDS011;4727;51.202;6.344;2023-06-14T11:36:15;1.50;;;1.40;;
9374;SDS011;4727;51.202;6.344;2023-06-14T11:38:41;1.75;;;1.55;;
9374;SDS011;4727;51.202;6.344;2023-06-14T11:41:07;2.88;;;1.95;;
9374;SDS011;4727;51.202;6.344;2023-06-14T11:43:32;3.13;;;1.50;;
9374;SDS011;4727;51.202;6.344;2023-06-14T11:45:59;1.90;;;1.73;;
9374;SDS011;4727;51.202;6.344;2023-06-14T11:48:38;1.13;;;1.13;;
9374;SDS011;4727;51.202;6.344;2023-06-14T11:51:05;2.88;;;1.30;;
9374;SDS011;4727;51.202;6.344;2023-06-14T11:53:31;1.30;;;1.30;;
9374;SDS011;4727;51.202;6.344;2023-06-14T11:55:57;2.22;;;1.20;;
9374;SDS011;4727;51.202;6.344;2023-06-14T11:58:23;1.52;;;1.35;;
9374;SDS011;4727;51.202;6.344;2023-06-14T12:00:50;1.42;;;1.33;;
9374;SDS011;4727;51.202;6.344;2023-06-14T12:03:15;0.93;;;0.93;;
9374;SDS011;4727;51.202;6.344;2023-06-14T12:05:41;1.48;;;1.48;;
9374;SDS011;4727;51.202;6.344;2023-06-14T12:08:06;1.35;;;1.10;;
9374;SDS011;4727;51.202;6.344;2023-06-14T12:10:39;1.45;;;1.33;;
9374;SDS011;4727;51.202;6.344;2023-06-14T12:13:08;0.98;;;0.98;;
9374;SDS011;4727;51.202;6.344;2023-06-14T12:15:34;1.85;;;1.70;;
9374;SDS011;4727;51.202;6.344;2023-06-14T12:18:00;1.52;;;1.52;;
9374;SDS011;4727;51.202;6.344;2023-06-14T12:20:29;1.20;;;1.20;;
9374;SDS011;4727;51.202;6.344;2023-06-14T12:22:57;1.10;;;1.10;;
9374;SDS011;4727;51.202;6.344;2023-06-14T12:25:32;2.08;;;1.40;;
9374;SDS011;4727;51.202;6.344;2023-06-14T12:28:03;1.40;;;1.35;;
9374;SDS011;4727;51.202;6.344;2023-06-14T12:30:31;1.65;;;1.55;;
9374;SDS011;4727;51.202;6.344;2023-06-14T12:32:56;1.27;;;1.25;;
9374;SDS011;4727;51.202;6.344;2023-06-14T12:35:22;1.58;;;1.48;;
9374;SDS011;4727;51.202;6.344;2023-06-14T12:37:48;1.67;;;1.52;;
9374;SDS011;4727;51.202;6.344;2023-06-14T12:40:13;1.35;;;1.35;;
9374;SDS011;4727;51.202;6.344;2023-06-14T12:42:42;2.00;;;1.48;;
9374;SDS011;4727;51.202;6.344;2023-06-14T12:45:10;1.60;;;1.50;;
9374;SDS011;4727;51.202;6.344;2023-06-14T12:47:35;1.50;;;1.40;;
9374;SDS011;4727;51.202;6.344;2023-06-14T12:50:01;5.05;;;1.80;;
9374;SDS011;4727;51.202;6.344;2023-06-14T12:52:27;1.30;;;1.30;;
9374;SDS011;4727;51.202;6.344;2023-06-14T12:54:53;1.52;;;1.42;;
9374;SDS011;4727;51.202;6.344;2023-06-14T12:57:18;1.67;;;1.58;;
9374;SDS011;4727;51.202;6.344;2023-06-14T12:59:44;1.70;;;1.60;;
9374;SDS011;4727;51.202;6.344;2023-06-14T13:02:14;1.58;;;1.48;;
9374;SDS011;4727;51.202;6.344;2023-06-14T13:04:41;2.05;;;1.85;;
9374;SDS011;4727;51.202;6.344;2023-06-14T13:07:07;1.55;;;1.52;;
9374;SDS011;4727;51.202;6.344;2023-06-14T13:09:33;1.80;;;1.70;;
9374;SDS011;4727;51.202;6.344;2023-06-14T13:11:58;1.98;;;1.88;;
9374;SDS011;4727;51.202;6.344;2023-06-14T13:14:24;1.58;;;1.50;;
9374;SDS011;4727;51.202;6.344;2023-06-14T13:16:50;1.52;;;1.42;;
9374;SDS011;4727;51.202;6.344;2023-06-14T13:19:15;1.70;;;1.60;;
9374;SDS011;4727;51.202;6.344;2023-06-14T13:21:41;1.67;;;1.58;;
9374;SDS011;4727;51.202;6.344;2023-06-14T13:24:07;1.55;;;1.45;;
9374;SDS011;4727;51.202;6.344;2023-06-14T13:26:32;1.60;;;1.60;;
9374;SDS011;4727;51.202;6.344;2023-06-14T13:28:59;1.13;;;0.95;;
9374;SDS011;4727;51.202;6.344;2023-06-14T13:31:24;1.65;;;1.55;;
9374;SDS011;4727;51.202;6.344;2023-06-14T13:33:50;1.40;;;1.40;;
9374;SDS011;4727;51.202;6.344;2023-06-14T13:36:16;1.45;;;1.42;;
9374;SDS011;4727;51.202;6.344;2023-06-14T13:38:41;1.77;;;1.67;;
9374;SDS011;4727;51.202;6.344;2023-06-14T13:41:07;1.65;;;1.55;;
9374;SDS011;4727;51.202;6.344;2023-06-14T13:43:33;1.95;;;1.85;;
9374;SDS011;4727;51.202;6.344;2023-06-14T13:45:58;1.30;;;1.30;;
9374;SDS011;4727;51.202;6.344;2023-06-14T13:48:24;1.95;;;1.33;;
9374;SDS011;4727;51.202;6.344;2023-06-14T13:50:49;1.60;;;1.55;;
9374;SDS011;4727;51.202;6.344;2023-06-14T13:53:15;1.20;;;1.20;;
9374;SDS011;4727;51.202;6.344;2023-06-14T13:55:40;1.60;;;1.50;;
9374;SDS011;4727;51.202;6.344;2023-06-14T13:58:06;2.05;;;1.27;;
9374;SDS011;4727;51.202;6.344;2023-06-14T14:00:32;1.08;;;1.08;;
9374;SDS011;4727;51.202;6.344;2023-06-14T14:02:57;4.35;;;1.58;;
9374;SDS011;4727;51.202;6.344;2023-06-14T14:05:24;1.60;;;1.60;;
9374;SDS011;4727;51.202;6.344;2023-06-14T14:07:54;2.78;;;1.30;;
9374;SDS011;4727;51.202;6.344;2023-06-14T14:10:20;1.55;;;1.55;;
9374;SDS011;4727;51.202;6.344;2023-06-14T14:12:46;1.95;;;1.75;;
9374;SDS011;4727;51.202;6.344;2023-06-14T14:15:12;1.38;;;1.38;;
9374;SDS011;4727;51.202;6.344;2023-06-14T14:17:39;3.20;;;1.55;;
9374;SDS011;4727;51.202;6.344;2023-06-14T14:20:05;2.10;;;1.23;;
9374;SDS011;4727;51.202;6.344;2023-06-14T14:22:32;1.23;;;1.20;;
9374;SDS011;4727;51.202;6.344;2023-06-14T14:24:57;1.52;;;1.42;;
9374;SDS011;4727;51.202;6.344;2023-06-14T14:27:23;1.83;;;1.73;;
9374;SDS011;4727;51.202;6.344;2023-06-14T14:29:49;1.63;;;1.60;;
9374;SDS011;4727;51.202;6.344;2023-06-14T14:32:14;2.05;;;1.77;;
9374;SDS011;4727;51.202;6.344;2023-06-14T14:34:40;1.40;;;1.30;;
9374;SDS011;4727;51.202;6.344;2023-06-14T14:37:05;1.73;;;1.63;;
9374;SDS011;4727;51.202;6.344;2023-06-14T14:39:31;1.50;;;1.45;;
9374;SDS011;4727;51.202;6.344;2023-06-14T14:41:57;1.63;;;1.38;;
9374;SDS011;4727;51.202;6.344;2023-06-14T14:44:22;0.88;;;0.88;;
9374;SDS011;4727;51.202;6.344;2023-06-14T14:46:48;1.17;;;1.17;;
9374;SDS011;4727;51.202;6.344;2023-06-14T14:49:13;1.63;;;1.63;;
9374;SDS011;4727;51.202;6.344;2023-06-14T14:51:39;1.58;;;1.55;;
9374;SDS011;4727;51.202;6.344;2023-06-14T14:54:05;1.40;;;1.40;;
9374;SDS011;4727;51.202;6.344;2023-06-14T14:56:31;2.90;;;1.35;;
9374;SDS011;4727;51.202;6.344;2023-06-14T14:58:57;2.67;;;2.13;;
9374;SDS011;4727;51.202;6.344;2023-06-14T15:01:23;1.92;;;1.83;;
9374;SDS011;4727;51.202;6.344;2023-06-14T15:03:48;1.88;;;1.80;;
9374;SDS011;4727;51.202;6.344;2023-06-14T15:06:14;2.08;;;1.98;;
9374;SDS011;4727;51.202;6.344;2023-06-14T15:08:39;2.05;;;1.95;;
9374;SDS011;4727;51.202;6.344;2023-06-14T15:11:05;2.03;;;1.92;;
9374;SDS011;4727;51.202;6.344;2023-06-14T15:13:31;2.40;;;1.60;;
9374;SDS011;4727;51.202;6.344;2023-06-14T15:15:57;5.72;;;2.10;;
9374;SDS011;4727;51.202;6.344;2023-06-14T15:18:22;1.60;;;1.60;;
9374;SDS011;4727;51.202;6.344;2023-06-14T15:20:48;1.55;;;1.50;;
9374;SDS011;4727;51.202;6.344;2023-06-14T15:23:14;1.70;;;1.70;;
9374;SDS011;4727;51.202;6.344;2023-06-14T15:25:44;2.13;;;2.03;;
9374;SDS011;4727;51.202;6.344;2023-06-14T15:28:12;2.10;;;2.00;;
9374;SDS011;4727;51.202;6.344;2023-06-14T15:30:37;1.80;;;1.75;;
9374;SDS011;4727;51.202;6.344;2023-06-14T15:33:03;1.98;;;1.85;;